Time;durP1;ratioP1;P1;durP2;ratioP2;P2;SDS_P1;SDS_P2;PMS_P1;PMS_P2;Temp;Humidity;BMP_temperature;BMP_pressure;BME280_temperature;BME280_humidity;BME280_pressure;Samples;Min_cycle;Max_cycle;Signal;HPM_P1;HPM_P2
2022/01/10 00:00:26;;;;;;;33.28;16.90;;;;;;;3.19;57.95;99201.72;4418197;32;33944;-85
2022/01/10 00:02:56;;;;;;;34.90;17.00;;;;;;;3.25;57.96;99206.78;4418890;32;33253;-84
2022/01/10 00:05:24;;;;;;;32.15;16.33;;;;;;;3.11;58.23;99203.66;4416383;32;34476;-84
2022/01/10 00:07:51;;;;;;;31.85;15.20;;;;;;;3.07;58.47;99209.81;4405700;32;32462;-84
2022/01/10 00:10:19;;;;;;;34.22;17.10;;;;;;;3.20;58.11;99199.97;4406067;32;33239;-85
2022/01/10 00:12:47;;;;;;;30.90;14.95;;;;;;;3.24;58.00;99199.88;4406031;32;33350;-84
2022/01/10 00:15:16;;;;;;;31.77;15.18;;;;;;;3.34;57.64;99200.50;4418372;32;34039;-84
2022/01/10 00:17:44;;;;;;;28.15;15.30;;;;;;;3.09;58.40;99202.84;4418726;32;34130;-84
2022/01/10 00:20:15;;;;;;;32.78;14.30;;;;;;;3.09;58.42;99208.06;4419006;32;34206;-84
2022/01/10 00:22:49;;;;;;;34.50;16.90;;;;;;;3.18;58.20;99205.25;4417522;32;34682;-84
2022/01/10 00:25:19;;;;;;;28.42;14.80;;;;;;;3.34;57.78;99201.37;4404027;32;33247;-84
2022/01/10 00:27:49;;;;;;;27.80;15.43;;;;;;;3.25;57.95;99205.94;4418860;32;34116;-84
2022/01/10 00:30:17;;;;;;;28.00;15.10;;;;;;;3.30;57.83;99214.50;4406433;32;34498;-83
2022/01/10 00:32:45;;;;;;;28.30;15.23;;;;;;;3.28;57.88;99209.34;4406181;32;33054;-83
2022/01/10 00:35:13;;;;;;;34.55;15.18;;;;;;;3.21;58.12;99212.12;4406127;32;33593;-83
2022/01/10 00:37:43;;;;;;;26.62;15.20;;;;;;;3.37;57.67;99215.22;4418728;32;33093;-83
2022/01/10 00:40:12;;;;;;;32.60;15.80;;;;;;;3.10;58.35;99217.59;4400596;32;32742;-83
2022/01/10 00:42:40;;;;;;;40.47;16.05;;;;;;;3.09;58.41;99221.09;4405203;32;33119;-83
2022/01/10 00:45:17;;;;;;;29.60;16.37;;;;;;;3.16;58.09;99220.06;4406085;32;32895;-84
2022/01/10 00:47:46;;;;;;;32.95;16.20;;;;;;;3.19;57.94;99225.22;4406674;32;32926;-84
2022/01/10 00:50:14;;;;;;;29.60;16.20;;;;;;;3.28;57.56;99221.53;4405694;32;34377;-84
2022/01/10 00:52:42;;;;;;;33.60;15.95;;;;;;;3.26;57.53;99218.94;4404950;32;33286;-84
2022/01/10 00:55:11;;;;;;;32.30;14.93;;;;;;;3.23;57.55;99218.16;4405801;32;33178;-85
2022/01/10 00:57:39;;;;;;;28.50;15.48;;;;;;;3.30;57.20;99220.59;4406147;32;32648;-85
2022/01/10 01:00:10;;;;;;;29.27;15.02;;;;;;;3.29;57.19;99221.50;4403572;32;32724;-85
2022/01/10 01:02:38;;;;;;;32.97;14.73;;;;;;;3.19;57.40;99217.38;4418464;32;33553;-85
2022/01/10 01:05:09;;;;;;;28.48;14.27;;;;;;;3.24;57.24;99220.75;4418285;32;33864;-85
2022/01/10 01:07:38;;;;;;;31.20;16.08;;;;;;;3.20;57.28;99226.91;4418412;32;34062;-85
2022/01/10 01:13:11;;;;;;;34.67;15.27;;;;;;;3.14;57.30;99229.69;4405631;32;33738;-85
2022/01/10 01:15:57;;;;;;;31.92;15.25;;;;;;;3.24;56.96;99235.53;4417602;32;33909;-85
2022/01/10 01:19:04;;;;;;;27.62;14.80;;;;;;;3.15;57.17;99233.13;4393488;32;32356;-84
2022/01/10 01:24:08;;;;;;;29.48;15.80;;;;;;;2.93;57.77;99245.78;4403919;32;34259;-85
2022/01/10 01:26:43;;;;;;;33.92;16.62;;;;;;;2.90;58.12;99235.44;4393175;32;34287;-84
2022/01/10 01:29:15;;;;;;;34.90;16.23;;;;;;;2.85;58.36;99234.66;4418078;32;33901;-85
2022/01/10 01:31:43;;;;;;;32.53;16.12;;;;;;;2.86;58.32;99232.03;4417293;32;33704;-85
2022/01/10 01:34:14;;;;;;;31.77;16.40;;;;;;;2.96;58.05;99232.69;4403928;32;34318;-84
2022/01/10 01:36:46;;;;;;;29.20;15.10;;;;;;;2.77;58.45;99234.84;4415688;32;33270;-85
2022/01/10 01:39:21;;;;;;;37.55;16.05;;;;;;;2.92;58.11;99236.25;4416059;32;33440;-85
2022/01/10 01:41:56;;;;;;;33.80;16.33;;;;;;;2.79;58.52;99243.47;4405281;32;33856;-85
2022/01/10 01:44:25;;;;;;;43.50;18.35;;;;;;;2.82;58.42;99246.87;4404704;32;33985;-85
2022/01/10 01:46:52;;;;;;;39.90;16.70;;;;;;;2.90;58.40;99235.44;4405484;32;34205;-84
2022/01/10 01:49:20;;;;;;;30.37;16.55;;;;;;;2.81;58.95;99246.91;4406831;32;33797;-84
2022/01/10 01:51:49;;;;;;;34.00;15.43;;;;;;;2.89;58.69;99247.59;4405207;32;33766;-84
2022/01/10 01:54:17;;;;;;;35.17;16.30;;;;;;;2.86;58.67;99249.44;4416552;32;33676;-84
2022/01/10 01:56:47;;;;;;;32.38;15.82;;;;;;;2.86;58.81;99249.44;4405277;32;33106;-84
2022/01/10 01:59:16;;;;;;;35.55;16.87;;;;;;;2.94;58.69;99250.09;4417678;32;33348;-84
2022/01/10 02:01:45;;;;;;;36.90;17.92;;;;;;;2.96;58.72;99251.81;4416463;32;34558;-84
2022/01/10 02:04:24;;;;;;;34.80;17.25;;;;;;;2.79;59.26;99246.94;4405184;32;35388;-84
2022/01/10 02:07:03;;;;;;;34.75;17.17;;;;;;;2.94;59.05;99247.50;4405213;32;32813;-84
2022/01/10 02:09:32;;;;;;;33.47;17.60;;;;;;;2.94;58.88;99242.28;4417277;32;33921;-84
2022/01/10 02:12:00;;;;;;;30.48;14.45;;;;;;;2.96;58.98;99245.72;4417786;32;34297;-84
2022/01/10 02:14:28;;;;;;;34.65;17.05;;;;;;;2.90;59.04;99243.25;4417311;32;33614;-84
2022/01/10 02:16:57;;;;;;;32.90;17.20;;;;;;;3.11;58.52;99240.16;4404854;32;34469;-84
2022/01/10 02:19:26;;;;;;;37.63;16.52;;;;;;;2.83;59.46;99243.38;4415479;32;33371;-85
2022/01/10 02:21:54;;;;;;;34.85;17.75;;;;;;;2.87;59.58;99245.94;4390683;32;33033;-85
2022/01/10 02:24:23;;;;;;;32.00;18.42;;;;;;;2.78;59.95;99242.62;4405200;32;33454;-85
2022/01/10 02:26:53;;;;;;;35.30;16.83;;;;;;;3.01;59.31;99242.12;4393810;32;33307;-85
2022/01/10 02:29:20;;;;;;;35.03;16.95;;;;;;;3.10;59.09;99248.91;4406208;32;32231;-84
2022/01/10 02:31:49;;;;;;;35.30;15.88;;;;;;;3.19;58.74;99242.62;4420305;32;33622;-86
2022/01/10 02:34:19;;;;;;;35.10;15.85;;;;;;;3.11;58.95;99241.94;4407185;32;33328;-86
2022/01/10 02:36:47;;;;;;;34.72;18.55;;;;;;;3.28;58.39;99238.03;4420748;32;32598;-86
2022/01/10 02:39:19;;;;;;;39.55;18.20;;;;;;;3.22;58.49;99238.16;4407910;32;33258;-86
2022/01/10 02:41:47;;;;;;;36.15;19.05;;;;;;;3.08;58.79;99243.69;4407628;32;33687;-86
2022/01/10 02:44:16;;;;;;;37.55;18.20;;;;;;;3.04;58.89;99238.59;4394865;32;32993;-87
2022/01/10 02:46:45;;;;;;;35.53;18.48;;;;;;;3.06;58.84;99249.84;4406567;32;33361;-86
2022/01/10 02:49:22;;;;;;;35.72;17.27;;;;;;;3.06;58.86;99245.50;4419558;32;32740;-87
2022/01/10 02:51:51;;;;;;;30.80;17.33;;;;;;;3.09;58.78;99236.75;4392827;32;32928;-87
2022/01/10 02:54:22;;;;;;;39.17;18.30;;;;;;;3.40;57.52;99241.25;4407199;32;33333;-86
2022/01/10 02:56:53;;;;;;;34.13;16.48;;;;;;;3.30;57.65;99246.69;4406928;32;32402;-86
2022/01/10 02:59:22;;;;;;;36.85;17.35;;;;;;;2.97;58.87;99247.44;4407500;32;32838;-86
2022/01/10 03:01:50;;;;;;;36.13;17.23;;;;;;;3.12;58.57;99251.47;4407299;32;34113;-86
2022/01/10 03:04:19;;;;;;;34.38;17.30;;;;;;;3.04;58.61;99254.25;4394939;32;32508;-85
2022/01/10 03:06:48;;;;;;;34.40;18.23;;;;;;;3.06;58.61;99257.69;4406882;32;34949;-86
2022/01/10 03:09:16;;;;;;;39.25;19.35;;;;;;;2.97;58.83;99258.72;4416742;32;33721;-87
2022/01/10 03:11:44;;;;;;;38.85;19.48;;;;;;;2.98;58.94;99254.37;4407201;32;33391;-86
2022/01/10 03:14:12;;;;;;;40.28;19.27;;;;;;;2.98;58.96;99270.00;4406473;32;34760;-87
2022/01/10 03:16:40;;;;;;;35.35;17.52;;;;;;;3.00;58.97;99263.03;4393220;32;33265;-86
2022/01/10 03:19:08;;;;;;;36.92;18.55;;;;;;;3.09;58.83;99268.06;4407032;32;32682;-85
2022/01/10 03:21:36;;;;;;;39.05;17.48;;;;;;;3.02;59.20;99271.66;4417359;32;33468;-85
2022/01/10 03:24:04;;;;;;;36.03;17.67;;;;;;;2.84;59.69;99265.09;4405799;32;33938;-84
2022/01/10 03:26:32;;;;;;;36.28;18.00;;;;;;;2.89;59.92;99270.22;4393527;32;33019;-84
2022/01/10 03:29:01;;;;;;;37.72;17.83;;;;;;;2.99;59.66;99271.72;4404997;32;33020;-85
2022/01/10 03:31:28;;;;;;;39.20;17.85;;;;;;;2.90;59.98;99271.94;4406575;32;34486;-85
2022/01/10 03:33:57;;;;;;;37.58;18.52;;;;;;;2.93;59.76;99274.47;4401072;32;35153;-85
2022/01/10 03:36:26;;;;;;;38.55;18.33;;;;;;;3.02;59.63;99279.50;4406114;32;33825;-85
2022/01/10 03:38:54;;;;;;;39.70;18.83;;;;;;;3.15;59.19;99275.72;4391692;32;33277;-85
2022/01/10 03:41:22;;;;;;;39.05;18.85;;;;;;;2.89;59.95;99278.03;4419166;32;34637;-85
2022/01/10 03:43:50;;;;;;;36.60;17.92;;;;;;;3.18;59.16;99280.00;4419264;32;34450;-85
2022/01/10 03:46:18;;;;;;;36.38;18.23;;;;;;;3.15;59.17;99277.50;4419020;32;33832;-85
2022/01/10 03:48:46;;;;;;;36.67;18.98;;;;;;;3.12;59.11;99283.63;4418276;32;32429;-85
2022/01/10 03:51:14;;;;;;;36.60;17.48;;;;;;;3.21;58.93;99283.41;4406149;32;33024;-85
2022/01/10 03:53:41;;;;;;;34.83;17.35;;;;;;;3.10;59.38;99300.22;4406400;32;33039;-85
2022/01/10 03:56:09;;;;;;;45.45;20.37;;;;;;;3.31;58.45;99295.34;4406688;32;34446;-86
2022/01/10 03:58:38;;;;;;;37.72;19.23;;;;;;;3.10;59.19;99308.88;4406617;32;31896;-86
2022/01/10 04:01:08;;;;;;;38.63;18.62;;;;;;;3.23;58.90;99302.53;4406028;32;32414;-86
2022/01/10 04:03:40;;;;;;;36.40;18.48;;;;;;;3.26;58.85;99301.56;4406806;32;34446;-86
2022/01/10 04:06:08;;;;;;;32.42;16.85;;;;;;;3.15;59.30;99309.66;4405180;32;33630;-85
2022/01/10 04:08:37;;;;;;;36.05;17.30;;;;;;;3.22;59.12;99312.97;4393112;32;33215;-84
2022/01/10 04:11:05;;;;;;;36.70;18.33;;;;;;;3.26;59.02;99315.47;4405790;32;33638;-84
2022/01/10 04:13:33;;;;;;;34.60;18.15;;;;;;;3.22;59.15;99313.81;4406183;32;32825;-85
2022/01/10 04:16:02;;;;;;;40.55;17.98;;;;;;;3.11;59.57;99317.56;4406122;32;33561;-85
2022/01/10 04:18:30;;;;;;;32.97;15.52;;;;;;;3.12;59.42;99322.75;4406368;32;32358;-84
2022/01/10 04:20:58;;;;;;;34.75;17.42;;;;;;;3.25;59.18;99323.34;4404815;32;33498;-84
2022/01/10 04:23:26;;;;;;;36.00;18.12;;;;;;;3.19;59.43;99321.75;4392874;32;34225;-84
2022/01/10 04:25:54;;;;;;;33.17;17.73;;;;;;;3.47;58.61;99327.22;4406053;32;32743;-84
2022/01/10 04:28:22;;;;;;;39.53;18.48;;;;;;;3.38;58.80;99332.63;4418836;32;33865;-84
2022/01/10 04:30:51;;;;;;;41.03;18.12;;;;;;;3.34;59.00;99330.97;4418765;32;33456;-85
2022/01/10 04:33:20;;;;;;;33.42;17.80;;;;;;;3.30;58.98;99332.78;4406149;32;32915;-84
2022/01/10 04:35:48;;;;;;;37.13;18.67;;;;;;;3.33;59.19;99335.34;4416116;32;32973;-85
2022/01/10 04:38:16;;;;;;;36.30;18.35;;;;;;;3.38;58.98;99337.84;4418664;32;33095;-84
2022/01/10 04:40:44;;;;;;;36.55;18.75;;;;;;;3.36;59.01;99333.53;4406206;32;34433;-85
2022/01/10 04:43:12;;;;;;;36.40;18.35;;;;;;;3.42;58.85;99333.41;4391734;32;33137;-84
2022/01/10 04:45:42;;;;;;;44.08;20.70;;;;;;;3.57;58.41;99333.09;4416238;32;85368;-84
2022/01/10 04:48:10;;;;;;;37.13;18.77;;;;;;;3.59;58.37;99336.50;4404005;32;32174;-85
2022/01/10 04:53:25;;;;;;;39.08;19.42;;;;;;;3.60;58.32;99349.50;4398796;32;32769;-85
2022/01/10 04:55:52;;;;;;;41.45;18.75;;;;;;;3.52;58.59;99351.47;4406465;32;33220;-84
2022/01/10 04:58:22;;;;;;;41.95;20.40;;;;;;;3.49;58.72;99346.28;4406024;32;33211;-84
2022/01/10 05:00:55;;;;;;;37.17;17.42;;;;;;;3.48;58.90;99343.72;4417535;32;32716;-83
2022/01/10 05:03:23;;;;;;;36.25;19.52;;;;;;;3.59;58.58;99352.16;4416535;32;34455;-84
2022/01/10 05:05:53;;;;;;;35.47;18.17;;;;;;;3.71;58.22;99348.44;4418433;32;33793;-84
2022/01/10 05:08:22;;;;;;;41.40;19.83;;;;;;;3.62;58.36;99352.09;4406087;32;32858;-84
2022/01/10 05:10:50;;;;;;;40.90;20.92;;;;;;;3.58;58.43;99351.31;4418356;32;33804;-84
2022/01/10 05:13:20;;;;;;;38.80;19.80;;;;;;;3.52;58.62;99359.28;4417522;32;33755;-84
2022/01/10 05:15:50;;;;;;;41.35;19.73;;;;;;;3.43;58.86;99361.25;4405486;32;34130;-84
2022/01/10 05:18:20;;;;;;;39.58;18.75;;;;;;;3.55;58.65;99359.19;4417049;32;33576;-84
2022/01/10 05:20:50;;;;;;;41.20;20.60;;;;;;;3.63;58.53;99366.03;4405203;32;34153;-84
2022/01/10 05:23:18;;;;;;;34.55;19.33;;;;;;;3.47;58.97;99368.13;4413191;32;33601;-84
2022/01/10 05:25:46;;;;;;;39.50;19.48;;;;;;;3.62;58.71;99374.75;4400991;32;35040;-84
2022/01/10 05:28:17;;;;;;;39.53;19.73;;;;;;;3.64;58.62;99370.34;4412619;32;33339;-84
2022/01/10 05:30:46;;;;;;;43.17;20.55;;;;;;;3.60;58.70;99369.53;4411943;32;33151;-84
2022/01/10 05:33:14;;;;;;;47.62;21.80;;;;;;;3.59;58.68;99376.53;4399159;32;33375;-84
2022/01/10 05:35:46;;;;;;;41.17;20.35;;;;;;;3.49;58.78;99371.53;4402271;32;32659;-84
2022/01/10 05:38:14;;;;;;;41.65;20.15;;;;;;;3.53;58.78;99373.19;4401276;32;33272;-85
2022/01/10 05:40:41;;;;;;;44.80;20.83;;;;;;;3.61;58.68;99371.28;4405114;32;33675;-84
2022/01/10 05:43:10;;;;;;;45.67;20.23;;;;;;;3.61;58.60;99371.28;4417317;32;33782;-85
2022/01/10 05:45:42;;;;;;;44.47;21.27;;;;;;;3.73;58.28;99375.34;4397952;32;33559;-85
2022/01/10 05:48:13;;;;;;;39.53;20.42;;;;;;;3.47;58.93;99383.78;4416020;32;33032;-85
2022/01/10 05:50:44;;;;;;;37.80;20.60;;;;;;;3.59;58.59;99384.34;4413802;32;34223;-85
2022/01/10 05:53:12;;;;;;;44.97;20.55;;;;;;;3.70;58.27;99384.09;4391658;32;32958;-85
2022/01/10 05:55:39;;;;;;;44.38;20.67;;;;;;;3.67;58.37;99381.59;4399627;32;32593;-85
2022/01/10 05:58:08;;;;;;;43.20;21.58;;;;;;;3.78;57.91;99390.03;4403472;32;33317;-85
2022/01/10 06:00:37;;;;;;;46.17;22.25;;;;;;;3.69;58.06;99384.16;4409225;32;34475;-86
2022/01/10 06:03:05;;;;;;;39.00;20.05;;;;;;;3.63;58.28;99385.16;4417371;32;33844;-86
2022/01/10 06:05:40;;;;;;;45.45;19.33;;;;;;;3.68;58.27;99388.50;4417781;32;34418;-85
2022/01/10 06:08:08;;;;;;;41.35;19.87;;;;;;;3.77;58.05;99383.09;4392606;32;32932;-85
2022/01/10 06:10:36;;;;;;;41.37;19.83;;;;;;;3.82;57.84;99390.81;4404778;32;34357;-85
2022/01/10 06:13:05;;;;;;;40.88;21.37;;;;;;;3.74;58.02;99385.75;4394954;32;32879;-85
2022/01/10 06:15:33;;;;;;;57.40;24.33;;;;;;;3.79;57.94;99391.72;4406323;32;33620;-85
2022/01/10 06:18:00;;;;;;;65.82;27.02;;;;;;;3.81;57.76;99389.09;4420095;32;33157;-85
2022/01/10 06:20:29;;;;;;;70.28;30.05;;;;;;;3.92;57.43;99396.69;4418437;32;35764;-85
2022/01/10 06:22:57;;;;;;;70.78;27.87;;;;;;;3.80;57.72;99397.84;4419098;32;34041;-85
2022/01/10 06:25:26;;;;;;;61.37;26.37;;;;;;;3.76;57.65;99399.66;4393537;32;32221;-84
2022/01/10 06:27:54;;;;;;;78.53;30.62;;;;;;;3.89;57.31;99396.75;4417595;32;33430;-85
2022/01/10 06:30:22;;;;;;;63.28;26.33;;;;;;;3.78;57.55;99408.31;4419423;32;34557;-85
2022/01/10 06:32:49;;;;;;;67.32;27.35;;;;;;;3.74;57.58;99403.19;4396086;32;33004;-85
2022/01/10 06:35:18;;;;;;;82.25;31.98;;;;;;;3.86;57.18;99410.75;4401764;32;32887;-88
2022/01/10 06:37:46;;;;;;;81.30;30.60;;;;;;;3.66;57.57;99405.13;4413291;32;33119;-87
2022/01/10 06:40:14;;;;;;;75.65;31.75;;;;;;;3.75;57.32;99417.94;4405135;32;32785;-88
2022/01/10 06:42:43;;;;;;;67.35;29.30;;;;;;;3.68;57.42;99417.25;4406599;32;34340;-88
2022/01/10 06:45:11;;;;;;;63.85;27.17;;;;;;;3.75;57.34;99421.44;4405146;32;32492;-87
2022/01/10 06:47:39;;;;;;;54.15;26.27;;;;;;;3.85;56.96;99428.19;4419271;32;33453;-88
2022/01/10 06:50:08;;;;;;;58.17;26.65;;;;;;;3.71;57.43;99418.94;4418874;32;34566;-87
2022/01/10 06:52:37;;;;;;;55.15;26.45;;;;;;;3.85;56.99;99427.31;4399896;32;32428;-88
2022/01/10 06:55:06;;;;;;;55.90;25.90;;;;;;;3.88;56.93;99427.22;4399517;32;34545;-88
2022/01/10 06:57:34;;;;;;;56.13;25.05;;;;;;;3.85;57.02;99441.25;4387362;32;32299;-88
2022/01/10 07:00:04;;;;;;;53.42;23.50;;;;;;;3.81;57.14;99442.19;4385192;32;34129;-87
2022/01/10 07:02:35;;;;;;;48.83;23.10;;;;;;;3.93;56.91;99440.19;4374596;32;32842;-87
2022/01/10 07:05:05;;;;;;;46.30;22.70;;;;;;;3.92;56.82;99443.69;4385304;32;33248;-88
2022/01/10 07:07:32;;;;;;;42.55;21.15;;;;;;;3.86;56.91;99442.09;4395337;32;32518;-87
2022/01/10 07:10:05;;;;;;;48.22;24.23;;;;;;;3.90;56.88;99450.72;4381805;32;33157;-88
2022/01/10 07:12:33;;;;;;;47.13;24.75;;;;;;;3.90;56.92;99445.50;4393964;32;32074;-88
2022/01/10 07:15:02;;;;;;;55.78;24.33;;;;;;;3.98;56.83;99448.78;4384718;32;32932;-87
2022/01/10 07:17:32;;;;;;;50.67;22.58;;;;;;;4.03;56.75;99457.38;4385301;32;31826;-87
2022/01/10 07:20:02;;;;;;;49.43;22.57;;;;;;;3.81;57.38;99457.88;4378534;32;33441;-87
2022/01/10 07:22:30;;;;;;;44.50;21.47;;;;;;;4.03;56.92;99463.44;4384810;32;33481;-85
2022/01/10 07:24:58;;;;;;;45.47;22.62;;;;;;;3.94;56.86;99462.81;4381623;32;33789;-86
2022/01/10 07:27:26;;;;;;;47.62;22.05;;;;;;;4.09;56.75;99467.72;4397791;32;36402;-86
2022/01/10 07:30:00;;;;;;;45.15;23.10;;;;;;;4.12;56.21;99478.06;4369652;32;32986;-85
2022/01/10 07:32:29;;;;;;;46.63;23.73;;;;;;;4.15;56.30;99480.63;4398289;32;34445;-85
2022/01/10 07:34:57;;;;;;;39.45;21.05;;;;;;;4.00;56.46;99484.44;4396509;32;33917;-86
2022/01/10 07:37:25;;;;;;;44.67;21.25;;;;;;;4.43;54.83;99499.13;4397100;32;32978;-86
2022/01/10 07:39:53;;;;;;;49.10;21.23;;;;;;;4.40;54.04;99490.50;4394938;32;34344;-86
2022/01/10 07:42:20;;;;;;;46.97;22.23;;;;;;;4.11;55.24;99497.25;4380679;32;33555;-86
2022/01/10 07:44:49;;;;;;;41.25;20.23;;;;;;;4.22;55.48;99500.47;4374401;32;33828;-85
2022/01/10 07:47:17;;;;;;;45.12;21.37;;;;;;;4.31;55.47;99502.88;4382123;32;32873;-86
2022/01/10 07:49:44;;;;;;;38.95;19.95;;;;;;;4.13;55.85;99498.09;4388605;32;33024;-86
2022/01/10 07:52:13;;;;;;;41.22;21.20;;;;;;;4.03;56.34;99499.19;4403773;32;33271;-86
2022/01/10 07:54:41;;;;;;;40.88;19.58;;;;;;;4.34;55.47;99505.44;4416867;32;32824;-86
2022/01/10 07:57:09;;;;;;;39.60;20.45;;;;;;;4.41;54.79;99510.50;4403054;32;34511;-85
2022/01/10 07:59:37;;;;;;;45.22;22.73;;;;;;;4.41;54.60;99503.53;4403836;32;34292;-86
2022/01/10 08:02:05;;;;;;;40.60;20.37;;;;;;;4.36;54.84;99508.88;4407648;32;32983;-86
2022/01/10 08:04:33;;;;;;;49.10;21.80;;;;;;;4.55;54.55;99500.59;4419402;32;32721;-86
2022/01/10 08:07:01;;;;;;;41.80;20.48;;;;;;;4.69;54.13;99511.56;4404167;32;32292;-86
2022/01/10 08:09:29;;;;;;;38.55;19.77;;;;;;;4.79;53.80;99510.44;4415215;32;32797;-86
2022/01/10 08:11:59;;;;;;;38.58;20.62;;;;;;;4.57;53.96;99517.12;4402833;32;32986;-86
2022/01/10 08:14:28;;;;;;;45.72;20.80;;;;;;;4.39;52.95;99509.72;4398353;32;33838;-86
2022/01/10 08:16:57;;;;;;;38.67;19.58;;;;;;;4.60;52.86;99517.91;4414436;32;32724;-85
2022/01/10 08:19:32;;;;;;;42.67;21.67;;;;;;;5.06;51.16;99508.03;4417803;32;32719;-86
2022/01/10 08:22:01;;;;;;;43.63;19.55;;;;;;;5.16;50.60;99508.66;4400821;32;32979;-86
2022/01/10 08:24:29;;;;;;;48.45;20.60;;;;;;;4.91;51.47;99517.16;4402622;32;33376;-86
2022/01/10 08:26:58;;;;;;;38.72;20.35;;;;;;;5.01;51.92;99518.63;4404699;32;33165;-86
2022/01/10 08:29:26;;;;;;;44.60;21.02;;;;;;;5.01;51.58;99513.41;4402217;32;33582;-86
2022/01/10 08:31:54;;;;;;;42.35;20.35;;;;;;;5.27;50.80;99520.59;4400444;32;30716;-85
2022/01/10 08:34:21;;;;;;;44.25;21.20;;;;;;;5.43;50.52;99520.16;4404214;32;33024;-85
2022/01/10 08:36:50;;;;;;;40.08;20.23;;;;;;;5.18;51.09;99519.97;4414033;32;32909;-86
2022/01/10 08:39:18;;;;;;;41.42;20.17;;;;;;;5.13;51.41;99520.09;4402967;32;34432;-86
2022/01/10 08:41:46;;;;;;;39.95;20.10;;;;;;;5.05;51.25;99530.75;4399831;32;33687;-86
2022/01/10 08:44:15;;;;;;;42.13;20.37;;;;;;;5.20;50.83;99523.38;4415945;32;34703;-87
2022/01/10 08:46:44;;;;;;;40.20;19.80;;;;;;;5.25;50.63;99527.59;4403008;32;34144;-86
2022/01/10 08:49:15;;;;;;;43.30;19.90;;;;;;;5.24;50.56;99528.50;4389650;32;33209;-86
2022/01/10 08:51:43;;;;;;;44.30;20.73;;;;;;;5.43;49.46;99538.50;4399302;32;34089;-86
2022/01/10 08:54:11;;;;;;;35.28;18.40;;;;;;;5.58;49.46;99532.84;4414916;32;33195;-86
2022/01/10 08:56:39;;;;;;;34.50;17.90;;;;;;;5.54;49.17;99534.66;4401362;32;32415;-86
2022/01/10 08:59:07;;;;;;;33.30;18.83;;;;;;;5.49;49.04;99538.31;4402769;32;32730;-86
2022/01/10 09:01:35;;;;;;;40.72;19.20;;;;;;;5.57;49.21;99538.97;4415585;32;34687;-86
2022/01/10 09:04:03;;;;;;;36.38;20.30;;;;;;;6.02;48.03;99535.97;4402430;32;32853;-86
2022/01/10 09:06:31;;;;;;;41.70;20.20;;;;;;;5.97;47.57;99543.09;4405024;32;33947;-86
2022/01/10 09:08:59;;;;;;;37.50;18.20;;;;;;;5.96;47.36;99547.50;4401816;32;34419;-86
2022/01/10 09:11:26;;;;;;;33.00;16.92;;;;;;;6.01;47.62;99547.38;4403499;32;33405;-87
2022/01/10 09:13:54;;;;;;;35.72;17.23;;;;;;;6.24;46.93;99549.31;4403608;32;34288;-86
2022/01/10 09:16:22;;;;;;;37.78;17.90;;;;;;;6.36;47.06;99547.19;4390086;32;32766;-86
2022/01/10 09:18:50;;;;;;;32.50;17.00;;;;;;;6.51;46.25;99551.09;4411883;32;32833;-87
2022/01/10 09:21:18;;;;;;;30.15;16.37;;;;;;;6.26;46.86;99544.88;4392982;32;32977;-87
2022/01/10 09:23:46;;;;;;;29.27;15.32;;;;;;;6.68;45.36;99561.91;4414402;32;32056;-86
2022/01/10 09:26:13;;;;;;;35.28;16.15;;;;;;;6.99;44.30;99554.81;4404348;32;34331;-86
2022/01/10 09:28:45;;;;;;;31.40;15.52;;;;;;;6.97;44.60;99557.47;4409667;32;33538;-86
2022/01/10 09:31:14;;;;;;;33.08;17.85;;;;;;;6.44;46.37;99559.19;4400589;32;34302;-86
2022/01/10 09:33:42;;;;;;;34.38;16.05;;;;;;;6.47;46.35;99559.09;4401034;32;32787;-87
2022/01/10 09:36:10;;;;;;;29.58;15.52;;;;;;;6.38;47.08;99550.59;4413152;32;34167;-86
2022/01/10 09:38:38;;;;;;;26.77;13.00;;;;;;;7.01;45.37;99547.75;4397975;32;33192;-86
2022/01/10 09:41:06;;;;;;;24.77;12.23;;;;;;;7.30;43.09;99539.72;4401788;32;32973;-86
2022/01/10 09:43:35;;;;;;;26.92;13.15;;;;;;;6.48;46.90;99543.31;4415273;32;33177;-86
2022/01/10 09:46:03;;;;;;;26.25;14.38;;;;;;;7.15;44.10;99535.00;4414781;32;33402;-86
2022/01/10 09:48:31;;;;;;;21.60;12.63;;;;;;;7.53;42.53;99532.81;4413573;32;34630;-87
2022/01/10 09:51:19;;;;;;;23.05;11.12;;;;;;;7.46;42.81;99537.44;4411156;32;33805;-86
2022/01/10 09:53:49;;;;;;;20.85;10.25;;;;;;;7.36;43.16;99536.06;4402818;32;34791;-86
2022/01/10 09:56:16;;;;;;;18.08;9.60;;;;;;;7.74;41.04;99532.06;4400986;32;34126;-86
2022/01/10 09:58:46;;;;;;;18.17;10.18;;;;;;;7.68;41.36;99529.63;4400339;32;33806;-86
2022/01/10 10:01:17;;;;;;;17.02;9.05;;;;;;;7.77;40.79;99531.09;4402410;32;33982;-86
2022/01/10 10:03:50;;;;;;;21.62;8.82;;;;;;;7.62;40.81;99533.34;4414508;32;33336;-86
2022/01/10 10:06:18;;;;;;;;;;;;;;;7.42;41.67;99535.84;4412696;32;34054;-86
2022/01/10 10:08:46;;;;;;;14.30;7.32;;;;;;;7.28;41.64;99533.69;4415339;32;32837;-86
2022/01/10 10:11:14;;;;;;;14.07;7.15;;;;;;;7.41;42.48;99537.63;4401170;32;32755;-86
2022/01/10 10:13:56;;;;;;;20.00;8.63;;;;;;;7.50;41.98;99532.91;4399769;32;32633;-86
2022/01/10 10:16:26;;;;;;;19.42;10.20;;;;;;;7.25;42.80;99544.28;4407302;32;32919;-86
2022/01/10 10:18:54;;;;;;;24.73;11.30;;;;;;;7.39;43.33;99541.19;4401647;32;34078;-86
2022/01/10 10:21:21;;;;;;;16.50;7.35;;;;;;;7.42;43.33;99541.94;4402114;32;32586;-85
2022/01/10 10:23:50;;;;;;;14.40;7.25;;;;;;;7.38;42.10;99535.06;4413697;32;33744;-86
2022/01/10 10:26:21;;;;;;;26.85;13.93;;;;;;;7.24;42.89;99534.69;4414567;32;33109;-86
2022/01/10 10:28:51;;;;;;;29.98;14.85;;;;;;;6.97;46.05;99540.88;4400450;32;34850;-86
2022/01/10 10:31:35;;;;;;;20.10;9.52;;;;;;;7.77;43.48;99531.94;4411586;32;33403;-86
2022/01/10 10:34:04;;;;;;;17.23;8.18;;;;;;;7.82;42.62;99531.78;4414843;32;32754;-86
2022/01/10 10:36:34;;;;;;;11.85;7.18;;;;;;;8.13;41.93;99534.97;4400320;32;33772;-86
2022/01/10 10:39:07;;;;;;;14.85;6.45;;;;;;;8.16;41.18;99529.59;4413663;32;32518;-86
2022/01/10 10:41:36;;;;;;;13.93;5.87;;;;;;;8.25;40.44;99536.28;4401458;32;34653;-86
2022/01/10 10:44:05;;;;;;;11.70;6.45;;;;;;;8.00;41.16;99530.25;4411391;32;34218;-86
2022/01/10 10:46:33;;;;;;;14.25;6.80;;;;;;;7.87;42.35;99522.78;4411200;32;33846;-86
2022/01/10 10:49:04;;;;;;;11.95;6.85;;;;;;;7.72;41.71;99527.75;4402974;32;33844;-86
2022/01/10 10:51:33;;;;;;;12.13;6.47;;;;;;;7.75;42.53;99528.53;4402357;32;33956;-86
2022/01/10 10:54:05;;;;;;;13.18;7.70;;;;;;;8.27;40.89;99530.97;4398886;32;33014;-86
2022/01/10 10:56:38;;;;;;;17.65;8.45;;;;;;;8.42;40.45;99533.88;4401817;32;32764;-87
2022/01/10 10:59:07;;;;;;;15.10;8.23;;;;;;;8.50;39.95;99532.72;4411843;32;33073;-87
2022/01/10 11:01:38;;;;;;;34.13;14.85;;;;;;;8.62;42.00;99537.50;4415678;32;33517;-87
2022/01/10 11:04:11;;;;;;;29.05;14.82;;;;;;;8.97;41.09;99543.97;4417481;32;34720;-87
2022/01/10 11:06:40;;;;;;;;;;;;;;;9.26;40.93;99531.34;4404115;32;34019;-87
2022/01/10 11:09:13;;;;;;;24.27;12.88;;;;;;;9.16;40.55;99534.41;4403798;32;32876;-87
2022/01/10 11:11:42;;;;;;;36.90;14.38;;;;;;;9.13;41.94;99541.56;4401206;32;33163;-87
2022/01/10 11:14:13;;;;;;;32.60;16.33;;;;;;;9.18;41.23;99536.97;4416907;32;34339;-86
2022/01/10 11:16:44;;;;;;;21.25;11.55;;;;;;;8.66;43.97;99545.22;4401597;32;32254;-87
2022/01/10 11:19:14;;;;;;;26.85;13.88;;;;;;;9.26;39.93;99553.31;4391831;32;32846;-87
2022/01/10 11:21:46;;;;;;;30.35;16.42;;;;;;;8.97;41.91;99550.13;4412895;32;33296;-87
2022/01/10 11:24:53;;;;;;;33.78;14.65;;;;;;;9.23;41.63;99553.44;4407213;32;33515;-86
2022/01/10 11:27:35;;;;;;;30.85;15.82;;;;;;;9.38;40.90;99550.13;4404219;32;33393;-87
2022/01/10 11:30:24;;;;;;;30.20;15.35;;;;;;;9.20;42.02;99550.91;4407197;32;34211;-87
2022/01/10 11:33:22;;;;;;;31.12;14.43;;;;;;;9.16;41.91;99559.84;4417277;32;35251;-87
2022/01/10 11:36:05;;;;;;;26.70;14.75;;;;;;;9.26;41.48;99560.31;4406302;32;32857;-87
2022/01/10 11:39:03;;;;;;;37.90;17.00;;;;;;;9.43;41.38;99550.78;4417106;32;33224;-87
2022/01/10 11:41:32;;;;;;;11.57;5.70;;;;;;;8.70;43.63;99556.50;4417377;32;34324;-86
2022/01/10 11:44:11;;;;;;;10.07;3.95;;;;;;;9.13;36.47;99560.00;4418728;32;33924;-86
2022/01/10 11:46:47;;;;;;;7.97;3.85;;;;;;;9.12;34.86;99563.56;4418418;32;33465;-86